sensor_id;sensor_type;location;lat;lon;timestamp;P1;durP1;ratioP1;P2;durP2;ratioP2
51467;SDS011;37545;45.302;-122.946;2023-12-20T03:55:01;8.38;;;3.95;;
51467;SDS011;37545;45.302;-122.946;2023-12-20T03:57:44;10.40;;;4.38;;
51467;SDS011;37545;45.302;-122.946;2023-12-20T04:05:26;13.77;;;4.78;;
51467;SDS011;37545;45.302;-122.946;2023-12-20T04:07:55;10.73;;;3.78;;
51467;SDS011;37545;45.302;-122.946;2023-12-20T04:10:28;7.45;;;3.40;;
51467;SDS011;37545;45.302;-122.946;2023-12-20T04:13:06;9.38;;;3.53;;
51467;SDS011;37545;45.302;-122.946;2023-12-20T04:15:35;9.88;;;4.30;;
51467;SDS011;37545;45.302;-122.946;2023-12-20T04:18:05;6.78;;;3.42;;
51467;SDS011;37545;45.302;-122.946;2023-12-20T04:20:37;6.53;;;3.10;;
51467;SDS011;37545;45.302;-122.946;2023-12-20T04:23:12;6.57;;;3.78;;
51467;SDS011;37545;45.302;-122.946;2023-12-20T04:54:23;1.92;;;1.30;;
51467;SDS011;37545;45.302;-122.946;2023-12-20T05:12:22;2.22;;;1.38;;
51467;SDS011;37545;45.302;-122.946;2023-12-20T05:14:52;1.45;;;0.85;;
51467;SDS011;37545;45.302;-122.946;2023-12-20T05:17:29;3.45;;;1.63;;
51467;SDS011;37545;45.302;-122.946;2023-12-20T05:19:58;2.72;;;0.90;;
51467;SDS011;37545;45.302;-122.946;2023-12-20T05:22:27;2.03;;;1.08;;
51467;SDS011;37545;45.302;-122.946;2023-12-20T05:35:51;1.45;;;0.85;;
51467;SDS011;37545;45.302;-122.946;2023-12-20T05:59:04;2.40;;;0.80;;
51467;SDS011;37545;45.302;-122.946;2023-12-20T06:01:34;1.67;;;1.00;;
51467;SDS011;37545;45.302;-122.946;2023-12-20T06:04:03;1.75;;;0.98;;
51467;SDS011;37545;45.302;-122.946;2023-12-20T06:06:32;10.45;;;0.98;;
51467;SDS011;37545;45.302;-122.946;2023-12-20T06:09:02;2.47;;;0.65;;
51467;SDS011;37545;45.302;-122.946;2023-12-20T07:12:46;2.17;;;1.08;;
51467;SDS011;37545;45.302;-122.946;2023-12-20T07:15:19;1.23;;;0.88;;
51467;SDS011;37545;45.302;-122.946;2023-12-20T07:17:48;1.42;;;0.90;;
51467;SDS011;37545;45.302;-122.946;2023-12-20T07:20:20;1.38;;;0.90;;
51467;SDS011;37545;45.302;-122.946;2023-12-20T07:22:50;1.45;;;1.10;;
51467;SDS011;37545;45.302;-122.946;2023-12-20T07:25:22;2.15;;;1.23;;
51467;SDS011;37545;45.302;-122.946;2023-12-20T07:28:09;1.45;;;0.95;;
51467;SDS011;37545;45.302;-122.946;2023-12-20T07:56:26;7.70;;;1.50;;
51467;SDS011;37545;45.302;-122.946;2023-12-20T07:58:55;3.10;;;1.17;;
51467;SDS011;37545;45.302;-122.946;2023-12-20T08:01:24;2.40;;;1.40;;
51467;SDS011;37545;45.302;-122.946;2023-12-20T08:22:14;4.63;;;1.75;;
51467;SDS011;37545;45.302;-122.946;2023-12-20T08:24:43;4.22;;;1.75;;
51467;SDS011;37545;45.302;-122.946;2023-12-20T08:27:13;4.03;;;1.98;;
51467;SDS011;37545;45.302;-122.946;2023-12-20T08:29:45;4.75;;;1.75;;
51467;SDS011;37545;45.302;-122.946;2023-12-20T08:32:21;1.65;;;1.27;;
51467;SDS011;37545;45.302;-122.946;2023-12-20T08:34:52;3.25;;;1.00;;
51467;SDS011;37545;45.302;-122.946;2023-12-20T08:37:26;2.80;;;1.13;;
51467;SDS011;37545;45.302;-122.946;2023-12-20T08:40:01;2.60;;;1.10;;
51467;SDS011;37545;45.302;-122.946;2023-12-20T08:42:30;2.13;;;1.27;;
51467;SDS011;37545;45.302;-122.946;2023-12-20T09:03:10;1.92;;;1.08;;
51467;SDS011;37545;45.302;-122.946;2023-12-20T09:05:39;2.67;;;1.52;;
51467;SDS011;37545;45.302;-122.946;2023-12-20T09:08:08;2.92;;;1.42;;
51467;SDS011;37545;45.302;-122.946;2023-12-20T09:10:41;3.38;;;1.40;;
51467;SDS011;37545;45.302;-122.946;2023-12-20T09:13:10;4.03;;;1.80;;
51467;SDS011;37545;45.302;-122.946;2023-12-20T09:15:39;2.35;;;1.25;;
51467;SDS011;37545;45.302;-122.946;2023-12-20T09:18:08;1.50;;;1.00;;
51467;SDS011;37545;45.302;-122.946;2023-12-20T09:20:39;2.05;;;1.20;;
51467;SDS011;37545;45.302;-122.946;2023-12-20T09:23:09;3.85;;;1.20;;
51467;SDS011;37545;45.302;-122.946;2023-12-20T09:25:38;2.55;;;1.10;;
51467;SDS011;37545;45.302;-122.946;2023-12-20T09:28:07;1.90;;;1.00;;
51467;SDS011;37545;45.302;-122.946;2023-12-20T09:30:38;1.48;;;1.13;;
51467;SDS011;37545;45.302;-122.946;2023-12-20T09:33:08;2.60;;;1.20;;
51467;SDS011;37545;45.302;-122.946;2023-12-20T09:35:39;1.67;;;1.10;;
51467;SDS011;37545;45.302;-122.946;2023-12-20T09:38:08;1.83;;;1.33;;
51467;SDS011;37545;45.302;-122.946;2023-12-20T09:40:38;2.55;;;1.30;;
51467;SDS011;37545;45.302;-122.946;2023-12-20T09:43:14;5.00;;;1.30;;
51467;SDS011;37545;45.302;-122.946;2023-12-20T10:21:29;2.30;;;0.77;;
51467;SDS011;37545;45.302;-122.946;2023-12-20T10:45:50;0.93;;;0.70;;
51467;SDS011;37545;45.302;-122.946;2023-12-20T10:48:20;0.95;;;0.70;;
51467;SDS011;37545;45.302;-122.946;2023-12-20T10:50:55;1.65;;;1.08;;
51467;SDS011;37545;45.302;-122.946;2023-12-20T10:53:28;1.25;;;0.70;;
51467;SDS011;37545;45.302;-122.946;2023-12-20T10:55:58;3.55;;;1.40;;
51467;SDS011;37545;45.302;-122.946;2023-12-20T10:58:30;2.55;;;1.30;;
51467;SDS011;37545;45.302;-122.946;2023-12-20T11:42:29;1.20;;;0.93;;
51467;SDS011;37545;45.302;-122.946;2023-12-20T11:45:02;1.95;;;0.95;;
51467;SDS011;37545;45.302;-122.946;2023-12-20T11:47:31;3.80;;;0.90;;
51467;SDS011;37545;45.302;-122.946;2023-12-20T12:21:20;1.60;;;1.17;;
51467;SDS011;37545;45.302;-122.946;2023-12-20T12:23:50;2.20;;;1.20;;
51467;SDS011;37545;45.302;-122.946;2023-12-20T12:26:19;4.07;;;1.35;;
51467;SDS011;37545;45.302;-122.946;2023-12-20T12:28:48;4.53;;;1.70;;
51467;SDS011;37545;45.302;-122.946;2023-12-20T12:31:25;3.97;;;1.80;;
51467;SDS011;37545;45.302;-122.946;2023-12-20T12:33:54;4.00;;;1.90;;
51467;SDS011;37545;45.302;-122.946;2023-12-20T12:36:25;2.70;;;1.58;;
51467;SDS011;37545;45.302;-122.946;2023-12-20T12:38:56;3.30;;;1.90;;
51467;SDS011;37545;45.302;-122.946;2023-12-20T12:41:29;3.88;;;1.75;;
51467;SDS011;37545;45.302;-122.946;2023-12-20T12:43:58;4.82;;;1.88;;
51467;SDS011;37545;45.302;-122.946;2023-12-20T12:46:27;2.75;;;1.70;;
51467;SDS011;37545;45.302;-122.946;2023-12-20T12:49:07;4.03;;;1.80;;
51467;SDS011;37545;45.302;-122.946;2023-12-20T12:51:40;3.17;;;1.90;;
51467;SDS011;37545;45.302;-122.946;2023-12-20T12:54:10;2.47;;;1.37;;
51467;SDS011;37545;45.302;-122.946;2023-12-20T12:56:49;3.15;;;1.48;;
51467;SDS011;37545;45.302;-122.946;2023-12-20T12:59:18;1.30;;;0.90;;
51467;SDS011;37545;45.302;-122.946;2023-12-20T13:01:48;2.28;;;1.50;;
51467;SDS011;37545;45.302;-122.946;2023-12-20T13:04:22;3.03;;;1.38;;
51467;SDS011;37545;45.302;-122.946;2023-12-20T13:06:56;3.25;;;1.90;;
51467;SDS011;37545;45.302;-122.946;2023-12-20T13:09:25;2.97;;;1.40;;
51467;SDS011;37545;45.302;-122.946;2023-12-20T13:11:54;2.75;;;1.40;;
51467;SDS011;37545;45.302;-122.946;2023-12-20T13:14:32;3.58;;;1.38;;
51467;SDS011;37545;45.302;-122.946;2023-12-20T13:17:03;1.88;;;1.33;;
51467;SDS011;37545;45.302;-122.946;2023-12-20T13:19:32;5.63;;;2.70;;
51467;SDS011;37545;45.302;-122.946;2023-12-20T13:22:11;2.60;;;1.13;;
51467;SDS011;37545;45.302;-122.946;2023-12-20T13:24:40;2.60;;;1.50;;
51467;SDS011;37545;45.302;-122.946;2023-12-20T13:27:09;1.55;;;0.95;;
51467;SDS011;37545;45.302;-122.946;2023-12-20T13:29:41;2.10;;;1.10;;
51467;SDS011;37545;45.302;-122.946;2023-12-20T13:32:14;2.60;;;1.00;;
51467;SDS011;37545;45.302;-122.946;2023-12-20T13:34:46;1.83;;;1.10;;
51467;SDS011;37545;45.302;-122.946;2023-12-20T13:37:17;3.17;;;1.50;;
51467;SDS011;37545;45.302;-122.946;2023-12-20T13:39:56;2.30;;;1.25;;
51467;SDS011;37545;45.302;-122.946;2023-12-20T13:55:20;1.20;;;0.80;;
51467;SDS011;37545;45.302;-122.946;2023-12-20T13:57:50;1.83;;;1.15;;
51467;SDS011;37545;45.302;-122.946;2023-12-20T14:00:22;2.70;;;1.05;;
51467;SDS011;37545;45.302;-122.946;2023-12-20T14:02:54;1.38;;;1.13;;
51467;SDS011;37545;45.302;-122.946;2023-12-20T14:05:24;1.10;;;1.00;;
51467;SDS011;37545;45.302;-122.946;2023-12-20T14:07:53;3.55;;;1.13;;
51467;SDS011;37545;45.302;-122.946;2023-12-20T14:18:18;4.32;;;1.00;;
51467;SDS011;37545;45.302;-122.946;2023-12-20T14:20:48;3.08;;;1.35;;
51467;SDS011;37545;45.302;-122.946;2023-12-20T14:23:17;3.88;;;1.20;;
51467;SDS011;37545;45.302;-122.946;2023-12-20T14:25:53;2.85;;;1.10;;
51467;SDS011;37545;45.302;-122.946;2023-12-20T14:28:26;1.45;;;0.80;;
51467;SDS011;37545;45.302;-122.946;2023-12-20T14:30:54;1.05;;;0.80;;
51467;SDS011;37545;45.302;-122.946;2023-12-20T14:33:26;2.38;;;0.93;;
51467;SDS011;37545;45.302;-122.946;2023-12-20T14:36:05;1.90;;;1.10;;
51467;SDS011;37545;45.302;-122.946;2023-12-20T14:38:35;1.35;;;0.70;;
51467;SDS011;37545;45.302;-122.946;2023-12-20T14:41:04;2.33;;;1.10;;
51467;SDS011;37545;45.302;-122.946;2023-12-20T14:43:45;2.85;;;1.27;;
51467;SDS011;37545;45.302;-122.946;2023-12-20T14:46:14;1.13;;;0.77;;
51467;SDS011;37545;45.302;-122.946;2023-12-20T14:51:29;1.75;;;1.00;;
51467;SDS011;37545;45.302;-122.946;2023-12-20T14:53:58;1.52;;;1.10;;
51467;SDS011;37545;45.302;-122.946;2023-12-20T14:56:28;2.25;;;1.13;;
51467;SDS011;37545;45.302;-122.946;2023-12-20T14:59:06;1.35;;;0.75;;
51467;SDS011;37545;45.302;-122.946;2023-12-20T15:01:36;1.58;;;1.20;;
51467;SDS011;37545;45.302;-122.946;2023-12-20T15:06:56;0.90;;;0.82;;
51467;SDS011;37545;45.302;-122.946;2023-12-20T15:09:26;2.63;;;1.10;;
51467;SDS011;37545;45.302;-122.946;2023-12-20T15:12:13;2.63;;;1.60;;
51467;SDS011;37545;45.302;-122.946;2023-12-20T15:22:50;1.55;;;1.00;;
51467;SDS011;37545;45.302;-122.946;2023-12-20T15:25:20;1.75;;;0.82;;
51467;SDS011;37545;45.302;-122.946;2023-12-20T15:27:58;2.22;;;0.90;;
51467;SDS011;37545;45.302;-122.946;2023-12-20T15:30:28;1.48;;;1.02;;
51467;SDS011;37545;45.302;-122.946;2023-12-20T16:19:25;2.22;;;1.17;;
51467;SDS011;37545;45.302;-122.946;2023-12-20T16:40:10;2.13;;;1.23;;
51467;SDS011;37545;45.302;-122.946;2023-12-20T16:42:45;1.50;;;1.08;;
51467;SDS011;37545;45.302;-122.946;2023-12-20T16:45:23;4.82;;;1.20;;
51467;SDS011;37545;45.302;-122.946;2023-12-20T16:55:37;1.77;;;1.10;;
